sensor_id;sensor_type;location;lat;lon;timestamp;temperature;humidity
8936;DHT22;4503;47.810;13.072;2022-08-24T00:01:12;22.90;62.20
8936;DHT22;4503;47.810;13.072;2022-08-24T00:03:41;22.90;62.20
8936;DHT22;4503;47.810;13.072;2022-08-24T00:06:11;22.90;62.90
8936;DHT22;4503;47.810;13.072;2022-08-24T00:08:40;22.90;62.10
8936;DHT22;4503;47.810;13.072;2022-08-24T00:11:07;22.90;62.20
8936;DHT22;4503;47.810;13.072;2022-08-24T00:13:34;22.90;62.10
8936;DHT22;4503;47.810;13.072;2022-08-24T00:16:00;22.90;62.10
8936;DHT22;4503;47.810;13.072;2022-08-24T00:18:27;22.90;62.20
8936;DHT22;4503;47.810;13.072;2022-08-24T00:20:53;22.80;62.00
8936;DHT22;4503;47.810;13.072;2022-08-24T00:23:19;22.80;62.00
8936;DHT22;4503;47.810;13.072;2022-08-24T00:25:45;22.80;62.00
8936;DHT22;4503;47.810;13.072;2022-08-24T00:28:11;22.80;62.20
8936;DHT22;4503;47.810;13.072;2022-08-24T00:30:38;22.80;62.20
8936;DHT22;4503;47.810;13.072;2022-08-24T00:33:04;22.80;62.20
8936;DHT22;4503;47.810;13.072;2022-08-24T00:35:30;22.80;62.20
8936;DHT22;4503;47.810;13.072;2022-08-24T00:37:56;22.70;62.10
8936;DHT22;4503;47.810;13.072;2022-08-24T00:40:30;22.70;62.30
8936;DHT22;4503;47.810;13.072;2022-08-24T00:42:58;22.70;62.40
8936;DHT22;4503;47.810;13.072;2022-08-24T00:45:29;22.70;62.50
8936;DHT22;4503;47.810;13.072;2022-08-24T00:48:02;22.60;62.50
8936;DHT22;4503;47.810;13.072;2022-08-24T00:50:53;22.60;62.60
8936;DHT22;4503;47.810;13.072;2022-08-24T00:53:36;22.60;62.80
8936;DHT22;4503;47.810;13.072;2022-08-24T00:56:26;22.50;62.50
8936;DHT22;4503;47.810;13.072;2022-08-24T00:59:15;22.50;62.50
8936;DHT22;4503;47.810;13.072;2022-08-24T01:01:48;22.40;62.60
8936;DHT22;4503;47.810;13.072;2022-08-24T01:04:27;22.40;62.60
8936;DHT22;4503;47.810;13.072;2022-08-24T01:06:57;22.30;62.90
8936;DHT22;4503;47.810;13.072;2022-08-24T01:09:23;22.20;62.70
8936;DHT22;4503;47.810;13.072;2022-08-24T01:11:49;22.10;62.80
8936;DHT22;4503;47.810;13.072;2022-08-24T01:14:16;22.10;63.00
8936;DHT22;4503;47.810;13.072;2022-08-24T01:16:45;22.00;63.20
8936;DHT22;4503;47.810;13.072;2022-08-24T01:19:46;21.90;63.10
8936;DHT22;4503;47.810;13.072;2022-08-24T01:24:58;21.80;63.50
8936;DHT22;4503;47.810;13.072;2022-08-24T01:27:25;21.70;63.40
8936;DHT22;4503;47.810;13.072;2022-08-24T01:29:52;21.60;63.40
8936;DHT22;4503;47.810;13.072;2022-08-24T01:32:23;21.60;63.50
8936;DHT22;4503;47.810;13.072;2022-08-24T01:34:52;21.50;63.70
8936;DHT22;4503;47.810;13.072;2022-08-24T01:37:20;21.50;63.80
8936;DHT22;4503;47.810;13.072;2022-08-24T01:39:52;21.40;64.00
8936;DHT22;4503;47.810;13.072;2022-08-24T01:42:21;21.30;64.20
8936;DHT22;4503;47.810;13.072;2022-08-24T01:44:47;21.30;64.20
8936;DHT22;4503;47.810;13.072;2022-08-24T01:47:14;21.20;64.20
8936;DHT22;4503;47.810;13.072;2022-08-24T01:49:44;21.20;64.40
8936;DHT22;4503;47.810;13.072;2022-08-24T01:52:15;21.20;64.50
8936;DHT22;4503;47.810;13.072;2022-08-24T01:54:43;21.10;64.50
8936;DHT22;4503;47.810;13.072;2022-08-24T01:57:10;21.10;64.40
8936;DHT22;4503;47.810;13.072;2022-08-24T01:59:37;21.10;64.70
8936;DHT22;4503;47.810;13.072;2022-08-24T02:02:21;21.00;64.60
8936;DHT22;4503;47.810;13.072;2022-08-24T02:04:51;21.00;65.10
8936;DHT22;4503;47.810;13.072;2022-08-24T02:07:17;20.90;64.70
8936;DHT22;4503;47.810;13.072;2022-08-24T02:09:44;20.90;64.90
8936;DHT22;4503;47.810;13.072;2022-08-24T02:12:11;20.80;64.80
8936;DHT22;4503;47.810;13.072;2022-08-24T02:14:38;20.80;64.90
8936;DHT22;4503;47.810;13.072;2022-08-24T02:17:05;20.80;65.00
8936;DHT22;4503;47.810;13.072;2022-08-24T02:19:33;20.80;65.10
8936;DHT22;4503;47.810;13.072;2022-08-24T02:21:59;20.80;65.20
8936;DHT22;4503;47.810;13.072;2022-08-24T02:24:27;20.80;65.20
8936;DHT22;4503;47.810;13.072;2022-08-24T02:26:54;20.80;65.40
8936;DHT22;4503;47.810;13.072;2022-08-24T02:29:21;20.70;65.40
8936;DHT22;4503;47.810;13.072;2022-08-24T02:31:47;20.80;65.50
8936;DHT22;4503;47.810;13.072;2022-08-24T02:34:13;20.70;65.40
8936;DHT22;4503;47.810;13.072;2022-08-24T02:36:39;20.70;65.50
8936;DHT22;4503;47.810;13.072;2022-08-24T02:39:06;20.70;65.50
8936;DHT22;4503;47.810;13.072;2022-08-24T02:41:33;20.70;65.70
8936;DHT22;4503;47.810;13.072;2022-08-24T02:44:00;20.70;65.70
8936;DHT22;4503;47.810;13.072;2022-08-24T02:46:28;20.70;65.80
8936;DHT22;4503;47.810;13.072;2022-08-24T02:48:55;20.60;65.80
8936;DHT22;4503;47.810;13.072;2022-08-24T02:51:30;20.60;65.80
8936;DHT22;4503;47.810;13.072;2022-08-24T02:53:58;20.70;66.10
8936;DHT22;4503;47.810;13.072;2022-08-24T02:56:26;20.60;65.90
8936;DHT22;4503;47.810;13.072;2022-08-24T02:58:55;20.60;66.10
8936;DHT22;4503;47.810;13.072;2022-08-24T03:01:21;20.60;66.10
8936;DHT22;4503;47.810;13.072;2022-08-24T03:03:47;20.60;66.10
8936;DHT22;4503;47.810;13.072;2022-08-24T03:06:13;20.70;66.30
8936;DHT22;4503;47.810;13.072;2022-08-24T03:08:39;20.70;66.40
8936;DHT22;4503;47.810;13.072;2022-08-24T03:11:05;20.70;66.40
8936;DHT22;4503;47.810;13.072;2022-08-24T03:13:33;20.70;66.40
8936;DHT22;4503;47.810;13.072;2022-08-24T03:16:00;20.70;66.50
8936;DHT22;4503;47.810;13.072;2022-08-24T03:18:27;20.70;66.50
8936;DHT22;4503;47.810;13.072;2022-08-24T03:20:57;20.70;66.50
8936;DHT22;4503;47.810;13.072;2022-08-24T03:23:25;20.70;66.50
8936;DHT22;4503;47.810;13.072;2022-08-24T03:25:52;20.70;66.40
8936;DHT22;4503;47.810;13.072;2022-08-24T03:28:20;20.80;66.50
8936;DHT22;4503;47.810;13.072;2022-08-24T03:30:48;20.80;66.50
8936;DHT22;4503;47.810;13.072;2022-08-24T03:33:14;20.80;66.50
8936;DHT22;4503;47.810;13.072;2022-08-24T03:35:41;20.80;66.40
8936;DHT22;4503;47.810;13.072;2022-08-24T03:38:06;20.80;66.40
8936;DHT22;4503;47.810;13.072;2022-08-24T03:40:33;20.80;66.40
8936;DHT22;4503;47.810;13.072;2022-08-24T03:43:00;20.80;66.40
8936;DHT22;4503;47.810;13.072;2022-08-24T03:45:27;20.70;66.30
8936;DHT22;4503;47.810;13.072;2022-08-24T03:47:53;20.70;66.30
8936;DHT22;4503;47.810;13.072;2022-08-24T03:50:20;20.70;66.20
8936;DHT22;4503;47.810;13.072;2022-08-24T03:52:47;20.60;66.20
8936;DHT22;4503;47.810;13.072;2022-08-24T03:55:13;20.60;66.40
8936;DHT22;4503;47.810;13.072;2022-08-24T03:57:39;20.50;66.20
8936;DHT22;4503;47.810;13.072;2022-08-24T04:00:08;20.50;66.10
8936;DHT22;4503;47.810;13.072;2022-08-24T04:02:35;20.40;66.00
8936;DHT22;4503;47.810;13.072;2022-08-24T04:05:03;20.40;65.90
8936;DHT22;4503;47.810;13.072;2022-08-24T04:07:30;20.30;65.90
8936;DHT22;4503;47.810;13.072;2022-08-24T04:09:56;20.30;66.00
8936;DHT22;4503;47.810;13.072;2022-08-24T04:12:26;20.20;66.00
8936;DHT22;4503;47.810;13.072;2022-08-24T04:14:52;20.20;66.10
8936;DHT22;4503;47.810;13.072;2022-08-24T04:17:22;20.20;66.20
8936;DHT22;4503;47.810;13.072;2022-08-24T04:19:47;20.20;66.20
8936;DHT22;4503;47.810;13.072;2022-08-24T04:22:31;20.10;66.00
8936;DHT22;4503;47.810;13.072;2022-08-24T04:25:01;20.10;66.00
8936;DHT22;4503;47.810;13.072;2022-08-24T04:27:31;20.10;65.90
8936;DHT22;4503;47.810;13.072;2022-08-24T04:29:57;20.10;65.80
8936;DHT22;4503;47.810;13.072;2022-08-24T04:32:30;20.10;65.70
8936;DHT22;4503;47.810;13.072;2022-08-24T04:34:59;20.00;65.80
8936;DHT22;4503;47.810;13.072;2022-08-24T04:37:25;20.00;65.80
8936;DHT22;4503;47.810;13.072;2022-08-24T04:39:51;19.90;65.80
8936;DHT22;4503;47.810;13.072;2022-08-24T04:42:17;19.90;65.90
8936;DHT22;4503;47.810;13.072;2022-08-24T04:44:46;19.90;66.20
8936;DHT22;4503;47.810;13.072;2022-08-24T04:47:14;19.80;66.30
8936;DHT22;4503;47.810;13.072;2022-08-24T04:49:40;19.80;66.30
8936;DHT22;4503;47.810;13.072;2022-08-24T04:52:09;19.80;66.40
8936;DHT22;4503;47.810;13.072;2022-08-24T04:54:38;19.80;66.50
8936;DHT22;4503;47.810;13.072;2022-08-24T04:57:06;19.80;66.50
8936;DHT22;4503;47.810;13.072;2022-08-24T04:59:32;19.80;66.50
8936;DHT22;4503;47.810;13.072;2022-08-24T05:02:03;19.80;66.50
8936;DHT22;4503;47.810;13.072;2022-08-24T05:04:32;19.80;66.60
8936;DHT22;4503;47.810;13.072;2022-08-24T05:07:02;19.80;66.70
8936;DHT22;4503;47.810;13.072;2022-08-24T05:09:31;19.80;66.60
8936;DHT22;4503;47.810;13.072;2022-08-24T05:11:57;19.80;66.70
8936;DHT22;4503;47.810;13.072;2022-08-24T05:14:26;19.80;66.90
8936;DHT22;4503;47.810;13.072;2022-08-24T05:16:56;19.80;66.90
8936;DHT22;4503;47.810;13.072;2022-08-24T05:19:25;19.80;66.90
8936;DHT22;4503;47.810;13.072;2022-08-24T05:21:54;19.80;67.10
8936;DHT22;4503;47.810;13.072;2022-08-24T05:24:20;19.80;67.20
8936;DHT22;4503;47.810;13.072;2022-08-24T05:26:49;19.80;67.20
8936;DHT22;4503;47.810;13.072;2022-08-24T05:29:20;19.90;67.30
8936;DHT22;4503;47.810;13.072;2022-08-24T05:31:46;19.90;67.50
8936;DHT22;4503;47.810;13.072;2022-08-24T05:34:12;19.90;67.50
8936;DHT22;4503;47.810;13.072;2022-08-24T05:36:42;19.90;67.60
8936;DHT22;4503;47.810;13.072;2022-08-24T05:39:12;19.90;67.60
8936;DHT22;4503;47.810;13.072;2022-08-24T05:41:40;19.90;67.90
8936;DHT22;4503;47.810;13.072;2022-08-24T05:44:10;20.00;67.70
8936;DHT22;4503;47.810;13.072;2022-08-24T05:46:38;20.00;67.90
8936;DHT22;4503;47.810;13.072;2022-08-24T05:49:04;20.00;68.00
8936;DHT22;4503;47.810;13.072;2022-08-24T05:51:35;20.10;68.10
8936;DHT22;4503;47.810;13.072;2022-08-24T05:54:01;20.10;68.20
8936;DHT22;4503;47.810;13.072;2022-08-24T05:56:29;20.20;68.20
8936;DHT22;4503;47.810;13.072;2022-08-24T05:58:55;20.30;68.30
8936;DHT22;4503;47.810;13.072;2022-08-24T06:01:24;20.30;68.20
8936;DHT22;4503;47.810;13.072;2022-08-24T06:03:52;20.50;68.50
8936;DHT22;4503;47.810;13.072;2022-08-24T06:06:23;20.50;68.50
8936;DHT22;4503;47.810;13.072;2022-08-24T06:08:53;20.70;68.70
8936;DHT22;4503;47.810;13.072;2022-08-24T06:11:29;20.70;68.70
8936;DHT22;4503;47.810;13.072;2022-08-24T06:14:01;20.80;68.70
8936;DHT22;4503;47.810;13.072;2022-08-24T06:16:39;20.90;68.60
8936;DHT22;4503;47.810;13.072;2022-08-24T06:19:09;21.00;69.30
8936;DHT22;4503;47.810;13.072;2022-08-24T06:21:37;21.10;68.50
8936;DHT22;4503;47.810;13.072;2022-08-24T06:24:05;21.10;68.40
8936;DHT22;4503;47.810;13.072;2022-08-24T06:26:32;21.10;68.30
8936;DHT22;4503;47.810;13.072;2022-08-24T06:29:18;21.20;68.40
8936;DHT22;4503;47.810;13.072;2022-08-24T06:31:47;21.20;68.20
8936;DHT22;4503;47.810;13.072;2022-08-24T06:34:14;21.30;68.30
8936;DHT22;4503;47.810;13.072;2022-08-24T06:36:42;21.30;68.30
8936;DHT22;4503;47.810;13.072;2022-08-24T06:39:10;21.30;68.30
8936;DHT22;4503;47.810;13.072;2022-08-24T06:41:40;21.40;68.30
8936;DHT22;4503;47.810;13.072;2022-08-24T06:44:06;21.40;68.30
8936;DHT22;4503;47.810;13.072;2022-08-24T06:46:34;21.50;68.60
8936;DHT22;4503;47.810;13.072;2022-08-24T06:49:04;21.50;68.20
8936;DHT22;4503;47.810;13.072;2022-08-24T06:51:30;21.60;68.20
8936;DHT22;4503;47.810;13.072;2022-08-24T06:53:57;21.70;68.20
8936;DHT22;4503;47.810;13.072;2022-08-24T06:56:24;21.70;68.10
8936;DHT22;4503;47.810;13.072;2022-08-24T06:58:50;21.70;68.10
8936;DHT22;4503;47.810;13.072;2022-08-24T07:01:19;21.80;68.10
8936;DHT22;4503;47.810;13.072;2022-08-24T07:03:50;21.90;68.20
8936;DHT22;4503;47.810;13.072;2022-08-24T07:06:18;22.00;68.20
8936;DHT22;4503;47.810;13.072;2022-08-24T07:08:46;22.10;68.10
8936;DHT22;4503;47.810;13.072;2022-08-24T07:11:13;22.20;68.20
8936;DHT22;4503;47.810;13.072;2022-08-24T07:13:42;22.30;68.30
8936;DHT22;4503;47.810;13.072;2022-08-24T07:16:13;22.30;68.00
8936;DHT22;4503;47.810;13.072;2022-08-24T07:22:35;22.50;68.00
8936;DHT22;4503;47.810;13.072;2022-08-24T07:25:01;22.60;67.90
8936;DHT22;4503;47.810;13.072;2022-08-24T07:27:28;22.70;68.00
8936;DHT22;4503;47.810;13.072;2022-08-24T07:29:54;22.70;67.80
8936;DHT22;4503;47.810;13.072;2022-08-24T07:32:20;22.80;67.70
8936;DHT22;4503;47.810;13.072;2022-08-24T07:34:47;22.80;68.30
8936;DHT22;4503;47.810;13.072;2022-08-24T07:37:13;22.80;67.50
8936;DHT22;4503;47.810;13.072;2022-08-24T07:39:39;22.90;67.40
8936;DHT22;4503;47.810;13.072;2022-08-24T07:42:06;22.90;67.50
8936;DHT22;4503;47.810;13.072;2022-08-24T07:44:33;23.00;67.60
8936;DHT22;4503;47.810;13.072;2022-08-24T07:47:00;23.00;67.90
8936;DHT22;4503;47.810;13.072;2022-08-24T07:49:26;23.00;67.90
8936;DHT22;4503;47.810;13.072;2022-08-24T07:51:52;23.10;67.90
8936;DHT22;4503;47.810;13.072;2022-08-24T07:54:19;23.10;67.80
8936;DHT22;4503;47.810;13.072;2022-08-24T07:56:45;23.20;67.80
8936;DHT22;4503;47.810;13.072;2022-08-24T07:59:12;23.30;67.70
8936;DHT22;4503;47.810;13.072;2022-08-24T08:01:38;23.30;67.60
8936;DHT22;4503;47.810;13.072;2022-08-24T08:04:05;23.30;67.60
8936;DHT22;4503;47.810;13.072;2022-08-24T08:06:32;23.30;67.70
8936;DHT22;4503;47.810;13.072;2022-08-24T08:08:58;23.40;67.80
8936;DHT22;4503;47.810;13.072;2022-08-24T08:11:25;23.40;67.60
8936;DHT22;4503;47.810;13.072;2022-08-24T08:13:51;23.50;67.70
8936;DHT22;4503;47.810;13.072;2022-08-24T08:16:18;23.60;67.70
8936;DHT22;4503;47.810;13.072;2022-08-24T08:22:35;23.60;67.20
8936;DHT22;4503;47.810;13.072;2022-08-24T08:25:20;23.70;67.00
8936;DHT22;4503;47.810;13.072;2022-08-24T08:27:46;23.70;67.30
8936;DHT22;4503;47.810;13.072;2022-08-24T08:30:13;23.70;67.10
8936;DHT22;4503;47.810;13.072;2022-08-24T08:32:39;23.80;67.00
8936;DHT22;4503;47.810;13.072;2022-08-24T08:35:07;23.80;67.00
8936;DHT22;4503;47.810;13.072;2022-08-24T08:37:37;23.90;67.20
8936;DHT22;4503;47.810;13.072;2022-08-24T08:40:09;23.90;67.00
8936;DHT22;4503;47.810;13.072;2022-08-24T08:43:28;23.90;67.00
8936;DHT22;4503;47.810;13.072;2022-08-24T08:52:59;24.10;67.20
8936;DHT22;4503;47.810;13.072;2022-08-24T08:59:06;24.30;67.50
8936;DHT22;4503;47.810;13.072;2022-08-24T09:04:56;24.60;67.50
8936;DHT22;4503;47.810;13.072;2022-08-24T09:08:14;24.70;67.70
8936;DHT22;4503;47.810;13.072;2022-08-24T09:10:54;24.80;67.50
8936;DHT22;4503;47.810;13.072;2022-08-24T09:27:34;25.40;66.30
8936;DHT22;4503;47.810;13.072;2022-08-24T09:30:22;25.50;66.30
8936;DHT22;4503;47.810;13.072;2022-08-24T09:33:06;25.60;66.10
8936;DHT22;4503;47.810;13.072;2022-08-24T09:45:03;26.00;65.70
8936;DHT22;4503;47.810;13.072;2022-08-24T09:53:49;26.30;65.40
8936;DHT22;4503;47.810;13.072;2022-08-24T09:56:27;26.50;65.50
8936;DHT22;4503;47.810;13.072;2022-08-24T10:11:38;27.00;63.20
8936;DHT22;4503;47.810;13.072;2022-08-24T10:14:55;27.10;62.80
8936;DHT22;4503;47.810;13.072;2022-08-24T10:33:46;27.70;61.40
8936;DHT22;4503;47.810;13.072;2022-08-24T10:40:33;28.00;61.20
8936;DHT22;4503;47.810;13.072;2022-08-24T10:46:43;28.20;60.80
8936;DHT22;4503;47.810;13.072;2022-08-24T10:52:24;28.30;59.70
8936;DHT22;4503;47.810;13.072;2022-08-24T10:54:54;28.40;60.20
8936;DHT22;4503;47.810;13.072;2022-08-24T10:57:33;28.50;60.10
8936;DHT22;4503;47.810;13.072;2022-08-24T11:00:09;28.60;59.60
8936;DHT22;4503;47.810;13.072;2022-08-24T11:02:42;28.60;59.30
8936;DHT22;4503;47.810;13.072;2022-08-24T11:05:15;28.70;59.40
8936;DHT22;4503;47.810;13.072;2022-08-24T11:07:58;28.80;59.30
8936;DHT22;4503;47.810;13.072;2022-08-24T11:10:36;28.80;59.30
8936;DHT22;4503;47.810;13.072;2022-08-24T11:13:26;28.90;59.10
8936;DHT22;4503;47.810;13.072;2022-08-24T11:15:57;29.00;58.20
8936;DHT22;4503;47.810;13.072;2022-08-24T11:22:40;29.10;58.20
8936;DHT22;4503;47.810;13.072;2022-08-24T11:25:26;29.20;58.00
8936;DHT22;4503;47.810;13.072;2022-08-24T11:28:18;29.30;57.80
8936;DHT22;4503;47.810;13.072;2022-08-24T11:30:52;29.40;57.60
8936;DHT22;4503;47.810;13.072;2022-08-24T11:33:33;29.50;57.60
8936;DHT22;4503;47.810;13.072;2022-08-24T11:36:17;29.60;57.30
8936;DHT22;4503;47.810;13.072;2022-08-24T11:38:45;29.80;56.70
8936;DHT22;4503;47.810;13.072;2022-08-24T11:41:23;30.00;56.30
8936;DHT22;4503;47.810;13.072;2022-08-24T11:44:08;30.20;56.30
8936;DHT22;4503;47.810;13.072;2022-08-24T11:50:33;30.80;55.40
8936;DHT22;4503;47.810;13.072;2022-08-24T11:56:46;31.70;54.60
8936;DHT22;4503;47.810;13.072;2022-08-24T12:00:03;32.20;54.70
8936;DHT22;4503;47.810;13.072;2022-08-24T12:06:12;33.00;52.60
8936;DHT22;4503;47.810;13.072;2022-08-24T12:09:16;33.10;52.00
8936;DHT22;4503;47.810;13.072;2022-08-24T12:14:50;33.20;50.90
8936;DHT22;4503;47.810;13.072;2022-08-24T12:17:37;33.30;50.60
8936;DHT22;4503;47.810;13.072;2022-08-24T12:23:01;33.60;50.20
8936;DHT22;4503;47.810;13.072;2022-08-24T12:25:33;33.80;50.00
8936;DHT22;4503;47.810;13.072;2022-08-24T12:28:25;33.90;49.40
8936;DHT22;4503;47.810;13.072;2022-08-24T12:31:05;34.00;48.80
8936;DHT22;4503;47.810;13.072;2022-08-24T12:33:37;34.10;48.50
8936;DHT22;4503;47.810;13.072;2022-08-24T12:36:20;34.30;49.10
8936;DHT22;4503;47.810;13.072;2022-08-24T12:39:19;34.40;48.10
8936;DHT22;4503;47.810;13.072;2022-08-24T12:42:10;34.70;48.20
8936;DHT22;4503;47.810;13.072;2022-08-24T12:44:46;34.90;47.00
8936;DHT22;4503;47.810;13.072;2022-08-24T12:47:27;34.90;47.10
8936;DHT22;4503;47.810;13.072;2022-08-24T12:50:40;34.80;47.30
8936;DHT22;4503;47.810;13.072;2022-08-24T12:59:21;35.00;45.60
8936;DHT22;4503;47.810;13.072;2022-08-24T13:02:24;34.90;46.50
8936;DHT22;4503;47.810;13.072;2022-08-24T13:05:16;34.80;46.50
8936;DHT22;4503;47.810;13.072;2022-08-24T13:07:47;34.80;46.20
8936;DHT22;4503;47.810;13.072;2022-08-24T13:25:17;34.70;45.20
8936;DHT22;4503;47.810;13.072;2022-08-24T13:28:01;34.60;45.80
8936;DHT22;4503;47.810;13.072;2022-08-24T13:30:49;34.50;45.80
8936;DHT22;4503;47.810;13.072;2022-08-24T13:36:55;34.40;45.90
8936;DHT22;4503;47.810;13.072;2022-08-24T13:42:57;34.50;45.00
8936;DHT22;4503;47.810;13.072;2022-08-24T13:45:57;34.50;45.90
8936;DHT22;4503;47.810;13.072;2022-08-24T13:48:54;34.60;45.80
8936;DHT22;4503;47.810;13.072;2022-08-24T13:52:08;34.70;45.80
8936;DHT22;4503;47.810;13.072;2022-08-24T13:55:02;34.90;46.40
8936;DHT22;4503;47.810;13.072;2022-08-24T13:57:50;35.10;45.30
8936;DHT22;4503;47.810;13.072;2022-08-24T14:09:16;35.20;45.50
8936;DHT22;4503;47.810;13.072;2022-08-24T14:15:06;35.20;45.40
8936;DHT22;4503;47.810;13.072;2022-08-24T14:25:22;35.50;45.90
8936;DHT22;4503;47.810;13.072;2022-08-24T14:46:26;36.80;45.80
8936;DHT22;4503;47.810;13.072;2022-08-24T14:49:19;37.00;46.30
8936;DHT22;4503;47.810;13.072;2022-08-24T14:52:16;37.20;45.80
8936;DHT22;4503;47.810;13.072;2022-08-24T14:58:20;37.70;45.00
8936;DHT22;4503;47.810;13.072;2022-08-24T15:04:49;38.20;45.10
8936;DHT22;4503;47.810;13.072;2022-08-24T15:07:32;38.30;45.00
8936;DHT22;4503;47.810;13.072;2022-08-24T15:10:10;38.60;44.60
8936;DHT22;4503;47.810;13.072;2022-08-24T15:15:26;39.00;43.50
8936;DHT22;4503;47.810;13.072;2022-08-24T15:25:14;39.40;42.00
8936;DHT22;4503;47.810;13.072;2022-08-24T15:28:09;39.40;42.10
8936;DHT22;4503;47.810;13.072;2022-08-24T15:30:40;39.40;42.00
8936;DHT22;4503;47.810;13.072;2022-08-24T15:33:23;39.40;41.20
8936;DHT22;4503;47.810;13.072;2022-08-24T15:36:12;39.50;41.00
8936;DHT22;4503;47.810;13.072;2022-08-24T15:38:42;39.60;40.90
8936;DHT22;4503;47.810;13.072;2022-08-24T15:41:14;39.70;40.70
8936;DHT22;4503;47.810;13.072;2022-08-24T15:46:56;39.90;40.50
8936;DHT22;4503;47.810;13.072;2022-08-24T15:49:34;40.00;40.30
8936;DHT22;4503;47.810;13.072;2022-08-24T15:52:43;40.00;39.70
8936;DHT22;4503;47.810;13.072;2022-08-24T15:55:38;40.00;40.30
8936;DHT22;4503;47.810;13.072;2022-08-24T16:01:21;39.90;38.70
8936;DHT22;4503;47.810;13.072;2022-08-24T16:04:11;39.70;39.20
8936;DHT22;4503;47.810;13.072;2022-08-24T16:06:43;39.50;39.10
8936;DHT22;4503;47.810;13.072;2022-08-24T16:12:20;39.30;39.00
8936;DHT22;4503;47.810;13.072;2022-08-24T16:14:51;39.30;39.70
8936;DHT22;4503;47.810;13.072;2022-08-24T16:25:26;39.30;39.00
8936;DHT22;4503;47.810;13.072;2022-08-24T16:30:51;39.20;39.10
8936;DHT22;4503;47.810;13.072;2022-08-24T16:36:05;39.00;38.40
8936;DHT22;4503;47.810;13.072;2022-08-24T16:38:35;38.80;38.00
8936;DHT22;4503;47.810;13.072;2022-08-24T16:41:06;38.70;38.20
8936;DHT22;4503;47.810;13.072;2022-08-24T16:43:36;38.50;38.40
8936;DHT22;4503;47.810;13.072;2022-08-24T16:46:04;38.20;38.40
8936;DHT22;4503;47.810;13.072;2022-08-24T16:48:33;38.10;38.80
8936;DHT22;4503;47.810;13.072;2022-08-24T16:50:59;38.00;38.70
8936;DHT22;4503;47.810;13.072;2022-08-24T16:53:25;37.90;38.70
8936;DHT22;4503;47.810;13.072;2022-08-24T16:55:52;37.80;38.80
8936;DHT22;4503;47.810;13.072;2022-08-24T16:58:18;37.60;38.70
8936;DHT22;4503;47.810;13.072;2022-08-24T17:00:49;37.40;38.50
8936;DHT22;4503;47.810;13.072;2022-08-24T17:03:15;37.20;38.50
8936;DHT22;4503;47.810;13.072;2022-08-24T17:05:41;36.80;38.20
8936;DHT22;4503;47.810;13.072;2022-08-24T17:08:09;36.40;38.30
8936;DHT22;4503;47.810;13.072;2022-08-24T17:14:18;35.50;38.70
8936;DHT22;4503;47.810;13.072;2022-08-24T17:16:44;35.00;39.10
8936;DHT22;4503;47.810;13.072;2022-08-24T17:19:14;34.70;39.50
8936;DHT22;4503;47.810;13.072;2022-08-24T17:21:42;34.40;39.80
8936;DHT22;4503;47.810;13.072;2022-08-24T17:24:09;34.10;40.00
8936;DHT22;4503;47.810;13.072;2022-08-24T17:26:36;33.80;40.10
8936;DHT22;4503;47.810;13.072;2022-08-24T17:29:06;33.50;40.10
8936;DHT22;4503;47.810;13.072;2022-08-24T17:31:36;33.20;40.20
8936;DHT22;4503;47.810;13.072;2022-08-24T17:34:04;32.90;40.30
8936;DHT22;4503;47.810;13.072;2022-08-24T17:36:33;32.60;40.60
8936;DHT22;4503;47.810;13.072;2022-08-24T17:39:01;32.30;40.80
8936;DHT22;4503;47.810;13.072;2022-08-24T17:41:28;31.90;41.00
8936;DHT22;4503;47.810;13.072;2022-08-24T17:43:55;31.50;41.30
8936;DHT22;4503;47.810;13.072;2022-08-24T17:46:22;31.20;41.60
8936;DHT22;4503;47.810;13.072;2022-08-24T17:48:48;30.90;41.90
8936;DHT22;4503;47.810;13.072;2022-08-24T17:51:15;30.60;42.10
8936;DHT22;4503;47.810;13.072;2022-08-24T17:53:41;30.30;42.50
8936;DHT22;4503;47.810;13.072;2022-08-24T17:56:08;30.10;42.80
8936;DHT22;4503;47.810;13.072;2022-08-24T17:58:37;29.80;43.20
8936;DHT22;4503;47.810;13.072;2022-08-24T18:01:23;29.50;43.30
8936;DHT22;4503;47.810;13.072;2022-08-24T18:03:50;29.20;43.40
8936;DHT22;4503;47.810;13.072;2022-08-24T18:06:17;29.00;43.80
8936;DHT22;4503;47.810;13.072;2022-08-24T18:08:46;28.80;44.30
8936;DHT22;4503;47.810;13.072;2022-08-24T18:11:12;28.60;44.80
8936;DHT22;4503;47.810;13.072;2022-08-24T18:13:40;28.40;44.80
8936;DHT22;4503;47.810;13.072;2022-08-24T18:16:14;28.30;45.20
8936;DHT22;4503;47.810;13.072;2022-08-24T18:18:46;28.20;45.50
8936;DHT22;4503;47.810;13.072;2022-08-24T18:21:17;28.00;45.60
8936;DHT22;4503;47.810;13.072;2022-08-24T18:23:45;27.90;45.90
8936;DHT22;4503;47.810;13.072;2022-08-24T18:26:25;27.80;46.10
8936;DHT22;4503;47.810;13.072;2022-08-24T18:28:54;27.70;46.30
8936;DHT22;4503;47.810;13.072;2022-08-24T18:31:23;27.50;46.40
8936;DHT22;4503;47.810;13.072;2022-08-24T18:33:50;27.50;46.70
8936;DHT22;4503;47.810;13.072;2022-08-24T18:36:16;27.40;46.80
8936;DHT22;4503;47.810;13.072;2022-08-24T18:38:42;27.30;47.00
8936;DHT22;4503;47.810;13.072;2022-08-24T18:41:09;27.20;47.20
8936;DHT22;4503;47.810;13.072;2022-08-24T18:43:35;27.10;47.20
8936;DHT22;4503;47.810;13.072;2022-08-24T18:46:02;27.00;47.50
8936;DHT22;4503;47.810;13.072;2022-08-24T18:48:29;26.90;47.60
8936;DHT22;4503;47.810;13.072;2022-08-24T18:56:02;26.70;48.10
8936;DHT22;4503;47.810;13.072;2022-08-24T18:58:29;26.70;48.40
8936;DHT22;4503;47.810;13.072;2022-08-24T19:00:56;26.60;48.40
8936;DHT22;4503;47.810;13.072;2022-08-24T19:03:22;26.50;48.70
8936;DHT22;4503;47.810;13.072;2022-08-24T19:05:51;26.50;48.80
8936;DHT22;4503;47.810;13.072;2022-08-24T19:08:17;26.50;49.10
8936;DHT22;4503;47.810;13.072;2022-08-24T19:10:44;26.40;49.00
8936;DHT22;4503;47.810;13.072;2022-08-24T19:13:12;26.40;49.20
8936;DHT22;4503;47.810;13.072;2022-08-24T19:15:41;26.30;49.30
8936;DHT22;4503;47.810;13.072;2022-08-24T19:18:09;26.30;49.50
8936;DHT22;4503;47.810;13.072;2022-08-24T19:20:39;26.30;49.80
8936;DHT22;4503;47.810;13.072;2022-08-24T19:23:09;26.20;49.90
8936;DHT22;4503;47.810;13.072;2022-08-24T19:25:39;26.20;50.00
8936;DHT22;4503;47.810;13.072;2022-08-24T19:28:09;26.10;50.00
8936;DHT22;4503;47.810;13.072;2022-08-24T19:30:36;26.10;50.10
8936;DHT22;4503;47.810;13.072;2022-08-24T19:33:05;26.10;50.20
8936;DHT22;4503;47.810;13.072;2022-08-24T19:35:33;26.00;50.40
8936;DHT22;4503;47.810;13.072;2022-08-24T19:38:01;26.00;50.20
8936;DHT22;4503;47.810;13.072;2022-08-24T19:40:28;25.90;50.40
8936;DHT22;4503;47.810;13.072;2022-08-24T19:42:56;25.80;50.50
8936;DHT22;4503;47.810;13.072;2022-08-24T19:45:24;25.80;50.70
8936;DHT22;4503;47.810;13.072;2022-08-24T19:48:11;25.70;50.90
8936;DHT22;4503;47.810;13.072;2022-08-24T19:50:38;25.60;51.00
8936;DHT22;4503;47.810;13.072;2022-08-24T19:53:06;25.60;51.20
8936;DHT22;4503;47.810;13.072;2022-08-24T19:55:34;25.60;51.30
8936;DHT22;4503;47.810;13.072;2022-08-24T20:00:57;25.40;51.50
8936;DHT22;4503;47.810;13.072;2022-08-24T20:03:28;25.30;51.90
8936;DHT22;4503;47.810;13.072;2022-08-24T20:05:54;25.30;51.80
8936;DHT22;4503;47.810;13.072;2022-08-24T20:08:21;25.30;51.90